sensor_id;sensor_type;location;lat;lon;timestamp;P1;durP1;ratioP1;P2;durP2;ratioP2
20462;SDS011;10390;53.566;9.980;2023-03-01T00:01:20;7.75;;;4.40;;
20462;SDS011;10390;53.566;9.980;2023-03-01T00:03:47;7.35;;;3.97;;
20462;SDS011;10390;53.566;9.980;2023-03-01T00:06:13;6.38;;;4.32;;
20462;SDS011;10390;53.566;9.980;2023-03-01T00:08:39;7.72;;;4.07;;
20462;SDS011;10390;53.566;9.980;2023-03-01T00:11:10;10.43;;;4.72;;
20462;SDS011;10390;53.566;9.980;2023-03-01T00:13:38;7.85;;;4.50;;
20462;SDS011;10390;53.566;9.980;2023-03-01T00:16:06;6.95;;;4.38;;
20462;SDS011;10390;53.566;9.980;2023-03-01T00:18:33;8.00;;;4.20;;
20462;SDS011;10390;53.566;9.980;2023-03-01T00:20:59;6.57;;;4.07;;
20462;SDS011;10390;53.566;9.980;2023-03-01T00:23:24;10.75;;;4.18;;
20462;SDS011;10390;53.566;9.980;2023-03-01T00:25:51;6.07;;;3.92;;
20462;SDS011;10390;53.566;9.980;2023-03-01T00:28:16;6.82;;;3.75;;
20462;SDS011;10390;53.566;9.980;2023-03-01T00:30:43;7.72;;;4.53;;
20462;SDS011;10390;53.566;9.980;2023-03-01T00:33:08;6.07;;;3.90;;
20462;SDS011;10390;53.566;9.980;2023-03-01T00:35:34;5.85;;;4.25;;
20462;SDS011;10390;53.566;9.980;2023-03-01T00:38:00;6.47;;;4.05;;
20462;SDS011;10390;53.566;9.980;2023-03-01T00:40:29;8.07;;;4.20;;
20462;SDS011;10390;53.566;9.980;2023-03-01T00:42:57;6.53;;;3.85;;
20462;SDS011;10390;53.566;9.980;2023-03-01T00:45:22;6.75;;;4.22;;
20462;SDS011;10390;53.566;9.980;2023-03-01T00:47:48;6.53;;;3.83;;
20462;SDS011;10390;53.566;9.980;2023-03-01T00:50:15;6.45;;;4.25;;
20462;SDS011;10390;53.566;9.980;2023-03-01T00:52:41;6.53;;;3.92;;
20462;SDS011;10390;53.566;9.980;2023-03-01T00:55:06;6.40;;;4.00;;
20462;SDS011;10390;53.566;9.980;2023-03-01T00:57:33;8.05;;;4.50;;
20462;SDS011;10390;53.566;9.980;2023-03-01T00:59:59;6.28;;;4.13;;
20462;SDS011;10390;53.566;9.980;2023-03-01T01:02:25;7.20;;;4.20;;
20462;SDS011;10390;53.566;9.980;2023-03-01T01:04:51;6.70;;;4.30;;
20462;SDS011;10390;53.566;9.980;2023-03-01T01:07:17;6.90;;;4.45;;
20462;SDS011;10390;53.566;9.980;2023-03-01T01:09:45;7.72;;;4.28;;
20462;SDS011;10390;53.566;9.980;2023-03-01T01:12:10;5.75;;;3.75;;
20462;SDS011;10390;53.566;9.980;2023-03-01T01:14:36;7.32;;;4.00;;
20462;SDS011;10390;53.566;9.980;2023-03-01T01:17:02;6.97;;;4.43;;
20462;SDS011;10390;53.566;9.980;2023-03-01T01:19:28;8.13;;;4.65;;
20462;SDS011;10390;53.566;9.980;2023-03-01T01:21:53;7.22;;;3.90;;
20462;SDS011;10390;53.566;9.980;2023-03-01T01:24:19;7.70;;;4.47;;
20462;SDS011;10390;53.566;9.980;2023-03-01T01:26:45;6.03;;;3.75;;
20462;SDS011;10390;53.566;9.980;2023-03-01T01:29:10;6.70;;;4.10;;
20462;SDS011;10390;53.566;9.980;2023-03-01T01:31:37;5.95;;;4.20;;
20462;SDS011;10390;53.566;9.980;2023-03-01T01:34:04;5.93;;;3.88;;
20462;SDS011;10390;53.566;9.980;2023-03-01T01:36:32;5.82;;;3.65;;
20462;SDS011;10390;53.566;9.980;2023-03-01T01:38:58;7.50;;;4.05;;
20462;SDS011;10390;53.566;9.980;2023-03-01T01:41:25;6.22;;;4.00;;
20462;SDS011;10390;53.566;9.980;2023-03-01T01:44:14;5.30;;;3.50;;
20462;SDS011;10390;53.566;9.980;2023-03-01T01:47:07;6.80;;;3.33;;
20462;SDS011;10390;53.566;9.980;2023-03-01T01:49:44;6.63;;;3.95;;
20462;SDS011;10390;53.566;9.980;2023-03-01T01:57:34;5.82;;;2.97;;
20462;SDS011;10390;53.566;9.980;2023-03-01T02:00:11;5.53;;;3.90;;
20462;SDS011;10390;53.566;9.980;2023-03-01T02:02:39;6.18;;;4.03;;
20462;SDS011;10390;53.566;9.980;2023-03-01T02:07:57;6.15;;;3.90;;
20462;SDS011;10390;53.566;9.980;2023-03-01T02:10:24;6.85;;;3.33;;
20462;SDS011;10390;53.566;9.980;2023-03-01T02:12:51;5.15;;;3.60;;
20462;SDS011;10390;53.566;9.980;2023-03-01T02:15:17;6.50;;;3.75;;
20462;SDS011;10390;53.566;9.980;2023-03-01T02:17:43;5.85;;;3.80;;
20462;SDS011;10390;53.566;9.980;2023-03-01T02:23:02;6.32;;;3.85;;
20462;SDS011;10390;53.566;9.980;2023-03-01T02:30:42;5.10;;;3.75;;
20462;SDS011;10390;53.566;9.980;2023-03-01T02:33:27;5.45;;;3.58;;
20462;SDS011;10390;53.566;9.980;2023-03-01T02:35:57;6.40;;;4.18;;
20462;SDS011;10390;53.566;9.980;2023-03-01T02:38:25;6.68;;;3.75;;
20462;SDS011;10390;53.566;9.980;2023-03-01T02:40:52;5.57;;;3.67;;
20462;SDS011;10390;53.566;9.980;2023-03-01T02:43:22;5.93;;;3.45;;
20462;SDS011;10390;53.566;9.980;2023-03-01T02:45:52;6.82;;;3.78;;
20462;SDS011;10390;53.566;9.980;2023-03-01T02:48:22;5.05;;;3.20;;
20462;SDS011;10390;53.566;9.980;2023-03-01T02:53:41;5.25;;;3.40;;
20462;SDS011;10390;53.566;9.980;2023-03-01T02:56:21;4.88;;;3.33;;
20462;SDS011;10390;53.566;9.980;2023-03-01T02:58:47;7.13;;;3.40;;
20462;SDS011;10390;53.566;9.980;2023-03-01T03:01:16;5.65;;;3.20;;
20462;SDS011;10390;53.566;9.980;2023-03-01T03:03:46;5.30;;;3.17;;
20462;SDS011;10390;53.566;9.980;2023-03-01T03:06:12;6.93;;;3.42;;
20462;SDS011;10390;53.566;9.980;2023-03-01T03:08:38;5.85;;;2.97;;
20462;SDS011;10390;53.566;9.980;2023-03-01T03:11:04;6.32;;;3.33;;
20462;SDS011;10390;53.566;9.980;2023-03-01T03:13:29;4.72;;;3.30;;
20462;SDS011;10390;53.566;9.980;2023-03-01T03:15:55;5.00;;;3.10;;
20462;SDS011;10390;53.566;9.980;2023-03-01T03:18:21;4.80;;;3.03;;
20462;SDS011;10390;53.566;9.980;2023-03-01T03:20:48;4.78;;;2.95;;
20462;SDS011;10390;53.566;9.980;2023-03-01T03:23:17;4.55;;;3.17;;
20462;SDS011;10390;53.566;9.980;2023-03-01T03:25:44;4.90;;;2.85;;
20462;SDS011;10390;53.566;9.980;2023-03-01T03:28:09;4.85;;;3.00;;
20462;SDS011;10390;53.566;9.980;2023-03-01T03:30:36;5.10;;;3.22;;
20462;SDS011;10390;53.566;9.980;2023-03-01T03:33:04;4.65;;;3.00;;
20462;SDS011;10390;53.566;9.980;2023-03-01T03:35:41;4.93;;;3.15;;
20462;SDS011;10390;53.566;9.980;2023-03-01T03:38:09;4.45;;;2.90;;
20462;SDS011;10390;53.566;9.980;2023-03-01T03:40:43;4.78;;;3.00;;
20462;SDS011;10390;53.566;9.980;2023-03-01T03:43:14;4.68;;;2.90;;
20462;SDS011;10390;53.566;9.980;2023-03-01T03:45:43;4.97;;;3.08;;
20462;SDS011;10390;53.566;9.980;2023-03-01T03:48:12;4.75;;;2.80;;
20462;SDS011;10390;53.566;9.980;2023-03-01T03:50:39;6.15;;;2.90;;
20462;SDS011;10390;53.566;9.980;2023-03-01T03:53:09;3.72;;;2.70;;
20462;SDS011;10390;53.566;9.980;2023-03-01T03:55:36;4.55;;;2.80;;
20462;SDS011;10390;53.566;9.980;2023-03-01T03:58:04;4.00;;;2.50;;
20462;SDS011;10390;53.566;9.980;2023-03-01T04:00:41;4.10;;;2.72;;
20462;SDS011;10390;53.566;9.980;2023-03-01T04:03:09;4.75;;;2.90;;
20462;SDS011;10390;53.566;9.980;2023-03-01T04:05:36;5.25;;;2.95;;
20462;SDS011;10390;53.566;9.980;2023-03-01T04:08:03;4.28;;;3.00;;
20462;SDS011;10390;53.566;9.980;2023-03-01T04:10:50;4.25;;;2.90;;
20462;SDS011;10390;53.566;9.980;2023-03-01T04:13:21;4.53;;;3.10;;
20462;SDS011;10390;53.566;9.980;2023-03-01T04:15:51;4.82;;;3.30;;
20462;SDS011;10390;53.566;9.980;2023-03-01T04:18:19;3.72;;;2.50;;
20462;SDS011;10390;53.566;9.980;2023-03-01T04:20:46;4.70;;;2.83;;
20462;SDS011;10390;53.566;9.980;2023-03-01T04:23:13;4.00;;;2.90;;
20462;SDS011;10390;53.566;9.980;2023-03-01T04:25:49;4.70;;;3.10;;
20462;SDS011;10390;53.566;9.980;2023-03-01T04:28:27;4.95;;;3.20;;
20462;SDS011;10390;53.566;9.980;2023-03-01T04:30:54;5.50;;;3.03;;
20462;SDS011;10390;53.566;9.980;2023-03-01T04:33:22;4.30;;;2.63;;
20462;SDS011;10390;53.566;9.980;2023-03-01T04:35:48;4.63;;;3.10;;
20462;SDS011;10390;53.566;9.980;2023-03-01T04:38:14;4.55;;;3.13;;
20462;SDS011;10390;53.566;9.980;2023-03-01T04:40:41;4.35;;;3.00;;
20462;SDS011;10390;53.566;9.980;2023-03-01T04:43:08;4.00;;;3.00;;
20462;SDS011;10390;53.566;9.980;2023-03-01T04:45:34;4.05;;;2.75;;
20462;SDS011;10390;53.566;9.980;2023-03-01T04:48:01;4.40;;;2.88;;
20462;SDS011;10390;53.566;9.980;2023-03-01T04:50:27;4.28;;;2.75;;
20462;SDS011;10390;53.566;9.980;2023-03-01T04:52:52;5.18;;;3.33;;
20462;SDS011;10390;53.566;9.980;2023-03-01T04:55:18;4.75;;;2.97;;
20462;SDS011;10390;53.566;9.980;2023-03-01T04:57:44;3.70;;;2.90;;
20462;SDS011;10390;53.566;9.980;2023-03-01T05:00:13;4.80;;;3.30;;
20462;SDS011;10390;53.566;9.980;2023-03-01T05:02:48;4.43;;;3.22;;
20462;SDS011;10390;53.566;9.980;2023-03-01T05:05:20;4.10;;;2.80;;
20462;SDS011;10390;53.566;9.980;2023-03-01T05:07:54;3.85;;;2.72;;
20462;SDS011;10390;53.566;9.980;2023-03-01T05:10:21;4.28;;;2.90;;
20462;SDS011;10390;53.566;9.980;2023-03-01T05:12:48;3.67;;;2.60;;
20462;SDS011;10390;53.566;9.980;2023-03-01T05:15:14;3.83;;;2.70;;
20462;SDS011;10390;53.566;9.980;2023-03-01T05:17:40;4.38;;;2.90;;
20462;SDS011;10390;53.566;9.980;2023-03-01T05:20:05;4.05;;;2.97;;
20462;SDS011;10390;53.566;9.980;2023-03-01T05:22:35;4.32;;;2.85;;
20462;SDS011;10390;53.566;9.980;2023-03-01T05:25:01;4.10;;;2.70;;
20462;SDS011;10390;53.566;9.980;2023-03-01T05:27:28;4.32;;;3.15;;
20462;SDS011;10390;53.566;9.980;2023-03-01T05:29:54;3.92;;;2.50;;
20462;SDS011;10390;53.566;9.980;2023-03-01T05:32:20;4.65;;;2.85;;
20462;SDS011;10390;53.566;9.980;2023-03-01T05:34:46;4.20;;;2.65;;
20462;SDS011;10390;53.566;9.980;2023-03-01T05:37:12;4.32;;;3.28;;
20462;SDS011;10390;53.566;9.980;2023-03-01T05:39:39;4.75;;;3.33;;
20462;SDS011;10390;53.566;9.980;2023-03-01T05:42:04;6.60;;;3.60;;
20462;SDS011;10390;53.566;9.980;2023-03-01T05:44:30;4.75;;;3.40;;
20462;SDS011;10390;53.566;9.980;2023-03-01T05:46:56;5.68;;;3.40;;
20462;SDS011;10390;53.566;9.980;2023-03-01T05:49:22;5.38;;;3.00;;
20462;SDS011;10390;53.566;9.980;2023-03-01T05:51:51;7.72;;;3.80;;
20462;SDS011;10390;53.566;9.980;2023-03-01T05:54:18;5.13;;;3.47;;
20462;SDS011;10390;53.566;9.980;2023-03-01T05:56:45;5.82;;;3.40;;
20462;SDS011;10390;53.566;9.980;2023-03-01T05:59:11;5.95;;;3.38;;
20462;SDS011;10390;53.566;9.980;2023-03-01T06:01:37;6.15;;;3.22;;
20462;SDS011;10390;53.566;9.980;2023-03-01T06:04:03;8.50;;;3.90;;
20462;SDS011;10390;53.566;9.980;2023-03-01T06:06:29;6.72;;;4.15;;
20462;SDS011;10390;53.566;9.980;2023-03-01T06:08:58;4.72;;;3.13;;
20462;SDS011;10390;53.566;9.980;2023-03-01T06:11:23;7.97;;;3.30;;
20462;SDS011;10390;53.566;9.980;2023-03-01T06:13:49;5.68;;;3.47;;
20462;SDS011;10390;53.566;9.980;2023-03-01T06:16:14;7.93;;;3.40;;
20462;SDS011;10390;53.566;9.980;2023-03-01T06:18:40;6.68;;;3.42;;
20462;SDS011;10390;53.566;9.980;2023-03-01T06:21:06;7.53;;;3.20;;
20462;SDS011;10390;53.566;9.980;2023-03-01T06:23:33;4.85;;;3.15;;
20462;SDS011;10390;53.566;9.980;2023-03-01T06:25:59;7.47;;;3.38;;
20462;SDS011;10390;53.566;9.980;2023-03-01T06:28:25;8.30;;;3.30;;
20462;SDS011;10390;53.566;9.980;2023-03-01T06:30:51;8.32;;;3.60;;
20462;SDS011;10390;53.566;9.980;2023-03-01T06:33:17;8.85;;;3.50;;
20462;SDS011;10390;53.566;9.980;2023-03-01T06:35:45;7.68;;;3.40;;
20462;SDS011;10390;53.566;9.980;2023-03-01T06:38:11;8.40;;;3.28;;
20462;SDS011;10390;53.566;9.980;2023-03-01T06:40:39;9.07;;;3.00;;
20462;SDS011;10390;53.566;9.980;2023-03-01T06:43:06;9.32;;;3.35;;
20462;SDS011;10390;53.566;9.980;2023-03-01T06:45:32;8.48;;;3.33;;
20462;SDS011;10390;53.566;9.980;2023-03-01T06:48:04;8.05;;;3.35;;
20462;SDS011;10390;53.566;9.980;2023-03-01T06:50:31;9.20;;;3.50;;
20462;SDS011;10390;53.566;9.980;2023-03-01T06:52:58;7.65;;;3.50;;
20462;SDS011;10390;53.566;9.980;2023-03-01T06:55:24;7.90;;;3.05;;
20462;SDS011;10390;53.566;9.980;2023-03-01T06:57:53;12.07;;;3.72;;
20462;SDS011;10390;53.566;9.980;2023-03-01T07:00:21;9.25;;;3.80;;
20462;SDS011;10390;53.566;9.980;2023-03-01T07:02:47;11.85;;;4.30;;
20462;SDS011;10390;53.566;9.980;2023-03-01T07:05:12;12.55;;;3.95;;
20462;SDS011;10390;53.566;9.980;2023-03-01T07:07:38;17.92;;;4.95;;
20462;SDS011;10390;53.566;9.980;2023-03-01T07:10:04;19.02;;;6.22;;
20462;SDS011;10390;53.566;9.980;2023-03-01T07:12:30;22.40;;;5.47;;
20462;SDS011;10390;53.566;9.980;2023-03-01T07:14:55;19.92;;;5.45;;
20462;SDS011;10390;53.566;9.980;2023-03-01T07:17:21;15.15;;;4.90;;
20462;SDS011;10390;53.566;9.980;2023-03-01T07:19:46;10.82;;;4.40;;
20462;SDS011;10390;53.566;9.980;2023-03-01T07:22:12;15.13;;;4.40;;
20462;SDS011;10390;53.566;9.980;2023-03-01T07:24:37;15.02;;;5.70;;
20462;SDS011;10390;53.566;9.980;2023-03-01T07:27:03;14.85;;;5.60;;
20462;SDS011;10390;53.566;9.980;2023-03-01T07:29:29;16.15;;;4.90;;
20462;SDS011;10390;53.566;9.980;2023-03-01T07:31:55;11.10;;;4.97;;
20462;SDS011;10390;53.566;9.980;2023-03-01T07:34:20;11.95;;;4.50;;
20462;SDS011;10390;53.566;9.980;2023-03-01T07:36:46;11.82;;;4.65;;
20462;SDS011;10390;53.566;9.980;2023-03-01T07:39:12;10.07;;;3.72;;
20462;SDS011;10390;53.566;9.980;2023-03-01T07:41:38;9.88;;;4.35;;
20462;SDS011;10390;53.566;9.980;2023-03-01T07:44:03;11.57;;;4.53;;
20462;SDS011;10390;53.566;9.980;2023-03-01T07:46:29;13.63;;;4.68;;
20462;SDS011;10390;53.566;9.980;2023-03-01T07:48:54;12.60;;;4.18;;
20462;SDS011;10390;53.566;9.980;2023-03-01T07:51:20;11.82;;;4.85;;
20462;SDS011;10390;53.566;9.980;2023-03-01T07:53:46;15.60;;;4.60;;
20462;SDS011;10390;53.566;9.980;2023-03-01T07:56:13;9.77;;;4.10;;
20462;SDS011;10390;53.566;9.980;2023-03-01T07:58:41;11.18;;;4.35;;
20462;SDS011;10390;53.566;9.980;2023-03-01T08:01:09;9.40;;;3.92;;
20462;SDS011;10390;53.566;9.980;2023-03-01T08:03:39;11.35;;;4.70;;
20462;SDS011;10390;53.566;9.980;2023-03-01T08:06:06;10.63;;;4.90;;
20462;SDS011;10390;53.566;9.980;2023-03-01T08:08:33;12.45;;;4.40;;
20462;SDS011;10390;53.566;9.980;2023-03-01T08:10:59;12.27;;;4.45;;
20462;SDS011;10390;53.566;9.980;2023-03-01T08:13:26;9.98;;;4.38;;
20462;SDS011;10390;53.566;9.980;2023-03-01T08:15:52;12.57;;;4.70;;
20462;SDS011;10390;53.566;9.980;2023-03-01T08:18:18;9.05;;;4.00;;
20462;SDS011;10390;53.566;9.980;2023-03-01T08:20:45;10.98;;;4.47;;
20462;SDS011;10390;53.566;9.980;2023-03-01T08:23:11;6.95;;;4.05;;
20462;SDS011;10390;53.566;9.980;2023-03-01T08:25:37;10.50;;;4.30;;
20462;SDS011;10390;53.566;9.980;2023-03-01T08:28:03;11.40;;;4.70;;
20462;SDS011;10390;53.566;9.980;2023-03-01T08:30:28;11.20;;;4.53;;
20462;SDS011;10390;53.566;9.980;2023-03-01T08:32:54;10.63;;;4.47;;
20462;SDS011;10390;53.566;9.980;2023-03-01T08:35:20;9.05;;;3.83;;
20462;SDS011;10390;53.566;9.980;2023-03-01T08:37:47;10.60;;;4.22;;
20462;SDS011;10390;53.566;9.980;2023-03-01T08:40:13;6.70;;;4.20;;
20462;SDS011;10390;53.566;9.980;2023-03-01T08:42:39;8.68;;;3.80;;
20462;SDS011;10390;53.566;9.980;2023-03-01T08:45:08;9.20;;;3.97;;
20462;SDS011;10390;53.566;9.980;2023-03-01T08:47:34;11.52;;;4.15;;
20462;SDS011;10390;53.566;9.980;2023-03-01T08:50:00;7.75;;;4.10;;
20462;SDS011;10390;53.566;9.980;2023-03-01T08:52:25;7.82;;;4.20;;
20462;SDS011;10390;53.566;9.980;2023-03-01T08:54:51;9.80;;;3.97;;
20462;SDS011;10390;53.566;9.980;2023-03-01T08:57:17;8.40;;;3.85;;
20462;SDS011;10390;53.566;9.980;2023-03-01T08:59:43;9.00;;;3.63;;
20462;SDS011;10390;53.566;9.980;2023-03-01T09:02:16;8.73;;;3.97;;
20462;SDS011;10390;53.566;9.980;2023-03-01T09:04:43;9.02;;;3.75;;
20462;SDS011;10390;53.566;9.980;2023-03-01T09:07:09;10.00;;;3.75;;
20462;SDS011;10390;53.566;9.980;2023-03-01T09:09:35;9.38;;;3.50;;
20462;SDS011;10390;53.566;9.980;2023-03-01T09:12:01;7.20;;;4.18;;
20462;SDS011;10390;53.566;9.980;2023-03-01T09:14:28;9.00;;;3.67;;
20462;SDS011;10390;53.566;9.980;2023-03-01T09:16:53;8.40;;;3.55;;
20462;SDS011;10390;53.566;9.980;2023-03-01T09:19:19;9.52;;;3.60;;
20462;SDS011;10390;53.566;9.980;2023-03-01T09:21:45;7.10;;;3.55;;
20462;SDS011;10390;53.566;9.980;2023-03-01T09:24:17;8.43;;;3.65;;
20462;SDS011;10390;53.566;9.980;2023-03-01T09:26:47;6.15;;;3.70;;
20462;SDS011;10390;53.566;9.980;2023-03-01T09:29:13;6.47;;;3.55;;
20462;SDS011;10390;53.566;9.980;2023-03-01T09:31:39;7.15;;;3.90;;
20462;SDS011;10390;53.566;9.980;2023-03-01T09:34:06;8.27;;;3.60;;
20462;SDS011;10390;53.566;9.980;2023-03-01T09:36:32;6.60;;;3.70;;
20462;SDS011;10390;53.566;9.980;2023-03-01T09:38:58;6.03;;;3.00;;
20462;SDS011;10390;53.566;9.980;2023-03-01T09:44:16;9.02;;;3.40;;
20462;SDS011;10390;53.566;9.980;2023-03-01T09:47:02;6.03;;;3.30;;
20462;SDS011;10390;53.566;9.980;2023-03-01T09:49:32;7.90;;;3.95;;
20462;SDS011;10390;53.566;9.980;2023-03-01T09:52:04;6.55;;;3.85;;
20462;SDS011;10390;53.566;9.980;2023-03-01T09:55:08;6.43;;;3.30;;
20462;SDS011;10390;53.566;9.980;2023-03-01T09:57:48;8.52;;;4.05;;
20462;SDS011;10390;53.566;9.980;2023-03-01T10:00:29;7.03;;;3.70;;
20462;SDS011;10390;53.566;9.980;2023-03-01T10:06:04;6.40;;;3.50;;
20462;SDS011;10390;53.566;9.980;2023-03-01T10:11:20;7.00;;;3.60;;
20462;SDS011;10390;53.566;9.980;2023-03-01T10:16:53;5.70;;;3.55;;
20462;SDS011;10390;53.566;9.980;2023-03-01T10:19:40;6.22;;;3.50;;
20462;SDS011;10390;53.566;9.980;2023-03-01T10:22:29;7.43;;;3.78;;
20462;SDS011;10390;53.566;9.980;2023-03-01T10:25:02;7.18;;;3.80;;
20462;SDS011;10390;53.566;9.980;2023-03-01T10:27:34;5.53;;;3.67;;
20462;SDS011;10390;53.566;9.980;2023-03-01T10:32:46;4.90;;;3.55;;
20462;SDS011;10390;53.566;9.980;2023-03-01T10:35:25;5.68;;;3.80;;
20462;SDS011;10390;53.566;9.980;2023-03-01T10:38:05;4.90;;;3.42;;
20462;SDS011;10390;53.566;9.980;2023-03-01T10:40:34;6.90;;;3.80;;
20462;SDS011;10390;53.566;9.980;2023-03-01T10:43:02;6.75;;;3.30;;
20462;SDS011;10390;53.566;9.980;2023-03-01T10:48:03;5.45;;;3.60;;
20462;SDS011;10390;53.566;9.980;2023-03-01T10:50:31;5.18;;;3.63;;
20462;SDS011;10390;53.566;9.980;2023-03-01T10:53:05;5.35;;;3.72;;
20462;SDS011;10390;53.566;9.980;2023-03-01T10:56:14;5.72;;;3.60;;
20462;SDS011;10390;53.566;9.980;2023-03-01T11:01:35;5.80;;;3.55;;
20462;SDS011;10390;53.566;9.980;2023-03-01T11:06:35;6.20;;;3.92;;
20462;SDS011;10390;53.566;9.980;2023-03-01T11:11:40;4.95;;;3.10;;
20462;SDS011;10390;53.566;9.980;2023-03-01T11:14:16;6.07;;;3.42;;
20462;SDS011;10390;53.566;9.980;2023-03-01T11:16:46;4.53;;;3.05;;
20462;SDS011;10390;53.566;9.980;2023-03-01T11:19:20;6.28;;;3.38;;
20462;SDS011;10390;53.566;9.980;2023-03-01T11:24:30;5.13;;;3.35;;
20462;SDS011;10390;53.566;9.980;2023-03-01T11:27:08;5.32;;;3.10;;
20462;SDS011;10390;53.566;9.980;2023-03-01T11:32:19;5.10;;;3.15;;
20462;SDS011;10390;53.566;9.980;2023-03-01T11:34:53;5.22;;;3.13;;
20462;SDS011;10390;53.566;9.980;2023-03-01T11:40:16;4.10;;;2.85;;
20462;SDS011;10390;53.566;9.980;2023-03-01T11:42:57;4.72;;;3.10;;
20462;SDS011;10390;53.566;9.980;2023-03-01T11:45:26;5.30;;;3.33;;
20462;SDS011;10390;53.566;9.980;2023-03-01T11:48:06;5.68;;;3.33;;
20462;SDS011;10390;53.566;9.980;2023-03-01T11:50:45;5.47;;;3.22;;
20462;SDS011;10390;53.566;9.980;2023-03-01T12:01:44;5.05;;;2.92;;
20462;SDS011;10390;53.566;9.980;2023-03-01T12:06:59;4.45;;;2.80;;
20462;SDS011;10390;53.566;9.980;2023-03-01T12:15:34;6.70;;;3.33;;
20462;SDS011;10390;53.566;9.980;2023-03-01T12:23:29;6.15;;;3.40;;
20462;SDS011;10390;53.566;9.980;2023-03-01T12:26:29;5.38;;;3.28;;
20462;SDS011;10390;53.566;9.980;2023-03-01T12:31:50;4.88;;;3.00;;
20462;SDS011;10390;53.566;9.980;2023-03-01T12:37:51;4.45;;;3.05;;
20462;SDS011;10390;53.566;9.980;2023-03-01T12:44:03;6.47;;;3.03;;
20462;SDS011;10390;53.566;9.980;2023-03-01T12:46:25;5.78;;;2.72;;
20462;SDS011;10390;53.566;9.980;2023-03-01T12:49:12;5.93;;;2.83;;
20462;SDS011;10390;53.566;9.980;2023-03-01T12:51:42;7.00;;;3.13;;
20462;SDS011;10390;53.566;9.980;2023-03-01T12:54:19;5.32;;;2.72;;
20462;SDS011;10390;53.566;9.980;2023-03-01T12:56:52;5.65;;;3.53;;
20462;SDS011;10390;53.566;9.980;2023-03-01T12:59:22;4.80;;;3.33;;
20462;SDS011;10390;53.566;9.980;2023-03-01T13:07:21;6.47;;;3.30;;
20462;SDS011;10390;53.566;9.980;2023-03-01T13:17:53;7.45;;;3.40;;
20462;SDS011;10390;53.566;9.980;2023-03-01T13:20:20;8.02;;;3.38;;
20462;SDS011;10390;53.566;9.980;2023-03-01T13:23:00;7.35;;;3.17;;
20462;SDS011;10390;53.566;9.980;2023-03-01T13:31:02;6.65;;;3.33;;
20462;SDS011;10390;53.566;9.980;2023-03-01T13:33:45;7.22;;;3.10;;
20462;SDS011;10390;53.566;9.980;2023-03-01T13:36:59;6.30;;;3.60;;
20462;SDS011;10390;53.566;9.980;2023-03-01T13:46:42;9.57;;;3.40;;
20462;SDS011;10390;53.566;9.980;2023-03-01T13:49:11;7.00;;;3.80;;
20462;SDS011;10390;53.566;9.980;2023-03-01T13:51:41;5.72;;;3.58;;
20462;SDS011;10390;53.566;9.980;2023-03-01T13:54:09;5.20;;;3.00;;
20462;SDS011;10390;53.566;9.980;2023-03-01T13:56:37;5.80;;;2.92;;
20462;SDS011;10390;53.566;9.980;2023-03-01T13:59:13;8.73;;;3.35;;
20462;SDS011;10390;53.566;9.980;2023-03-01T14:01:42;7.30;;;3.15;;
20462;SDS011;10390;53.566;9.980;2023-03-01T14:04:24;8.73;;;2.95;;
20462;SDS011;10390;53.566;9.980;2023-03-01T14:06:50;6.00;;;3.42;;
20462;SDS011;10390;53.566;9.980;2023-03-01T14:09:23;6.68;;;2.75;;
20462;SDS011;10390;53.566;9.980;2023-03-01T14:14:32;6.90;;;3.42;;
20462;SDS011;10390;53.566;9.980;2023-03-01T14:20:14;4.47;;;3.10;;
20462;SDS011;10390;53.566;9.980;2023-03-01T14:22:49;7.03;;;3.47;;
20462;SDS011;10390;53.566;9.980;2023-03-01T14:25:33;9.15;;;3.55;;
20462;SDS011;10390;53.566;9.980;2023-03-01T14:28:14;6.57;;;3.28;;
20462;SDS011;10390;53.566;9.980;2023-03-01T14:30:49;9.18;;;3.90;;
20462;SDS011;10390;53.566;9.980;2023-03-01T14:33:20;7.68;;;3.78;;
20462;SDS011;10390;53.566;9.980;2023-03-01T14:36:02;4.78;;;3.00;;
20462;SDS011;10390;53.566;9.980;2023-03-01T14:38:34;5.25;;;3.10;;
20462;SDS011;10390;53.566;9.980;2023-03-01T14:41:05;7.88;;;3.40;;
20462;SDS011;10390;53.566;9.980;2023-03-01T14:43:34;10.05;;;3.92;;
20462;SDS011;10390;53.566;9.980;2023-03-01T14:46:01;12.13;;;4.00;;
20462;SDS011;10390;53.566;9.980;2023-03-01T14:48:27;7.30;;;3.83;;
20462;SDS011;10390;53.566;9.980;2023-03-01T14:50:54;8.07;;;3.17;;
20462;SDS011;10390;53.566;9.980;2023-03-01T14:53:28;12.30;;;4.22;;
20462;SDS011;10390;53.566;9.980;2023-03-01T14:55:55;8.05;;;4.03;;
20462;SDS011;10390;53.566;9.980;2023-03-01T14:58:27;6.32;;;3.35;;
20462;SDS011;10390;53.566;9.980;2023-03-01T15:00:57;7.90;;;3.72;;
20462;SDS011;10390;53.566;9.980;2023-03-01T15:03:31;15.27;;;3.80;;
20462;SDS011;10390;53.566;9.980;2023-03-01T15:06:03;10.77;;;4.28;;
20462;SDS011;10390;53.566;9.980;2023-03-01T15:08:30;8.57;;;3.55;;
20462;SDS011;10390;53.566;9.980;2023-03-01T15:11:04;10.32;;;3.70;;
20462;SDS011;10390;53.566;9.980;2023-03-01T15:13:42;11.65;;;3.83;;
20462;SDS011;10390;53.566;9.980;2023-03-01T15:16:11;10.73;;;3.80;;
20462;SDS011;10390;53.566;9.980;2023-03-01T15:18:45;10.55;;;3.40;;
20462;SDS011;10390;53.566;9.980;2023-03-01T15:21:26;8.43;;;3.95;;
20462;SDS011;10390;53.566;9.980;2023-03-01T15:24:13;13.32;;;4.13;;
20462;SDS011;10390;53.566;9.980;2023-03-01T15:26:47;8.52;;;3.25;;
20462;SDS011;10390;53.566;9.980;2023-03-01T15:29:21;12.27;;;3.78;;
20462;SDS011;10390;53.566;9.980;2023-03-01T15:31:56;7.40;;;3.70;;
20462;SDS011;10390;53.566;9.980;2023-03-01T15:34:27;6.90;;;3.63;;
20462;SDS011;10390;53.566;9.980;2023-03-01T15:36:56;8.75;;;3.53;;
20462;SDS011;10390;53.566;9.980;2023-03-01T15:42:13;9.20;;;3.85;;
20462;SDS011;10390;53.566;9.980;2023-03-01T15:48:02;12.23;;;3.70;;
20462;SDS011;10390;53.566;9.980;2023-03-01T15:50:31;11.75;;;3.55;;
20462;SDS011;10390;53.566;9.980;2023-03-01T15:52:59;12.43;;;4.00;;
20462;SDS011;10390;53.566;9.980;2023-03-01T15:55:29;8.02;;;3.30;;
20462;SDS011;10390;53.566;9.980;2023-03-01T15:58:03;9.77;;;3.40;;
20462;SDS011;10390;53.566;9.980;2023-03-01T16:00:39;7.55;;;3.22;;
20462;SDS011;10390;53.566;9.980;2023-03-01T16:03:05;7.65;;;3.30;;
20462;SDS011;10390;53.566;9.980;2023-03-01T16:05:33;20.05;;;6.55;;
20462;SDS011;10390;53.566;9.980;2023-03-01T16:07:59;39.00;;;10.93;;
20462;SDS011;10390;53.566;9.980;2023-03-01T16:10:25;22.92;;;8.98;;
20462;SDS011;10390;53.566;9.980;2023-03-01T16:12:52;22.40;;;8.77;;
20462;SDS011;10390;53.566;9.980;2023-03-01T16:17:48;17.80;;;8.40;;
20462;SDS011;10390;53.566;9.980;2023-03-01T16:20:15;21.73;;;9.38;;
20462;SDS011;10390;53.566;9.980;2023-03-01T16:22:44;21.42;;;8.85;;
20462;SDS011;10390;53.566;9.980;2023-03-01T16:25:11;17.33;;;8.18;;
20462;SDS011;10390;53.566;9.980;2023-03-01T16:27:43;16.42;;;7.93;;
20462;SDS011;10390;53.566;9.980;2023-03-01T16:30:11;13.73;;;7.88;;
20462;SDS011;10390;53.566;9.980;2023-03-01T16:32:41;19.15;;;7.57;;
20462;SDS011;10390;53.566;9.980;2023-03-01T16:35:08;13.68;;;7.15;;
20462;SDS011;10390;53.566;9.980;2023-03-01T16:37:36;13.80;;;6.85;;
20462;SDS011;10390;53.566;9.980;2023-03-01T16:40:03;16.17;;;7.10;;
20462;SDS011;10390;53.566;9.980;2023-03-01T16:42:33;17.25;;;7.13;;
20462;SDS011;10390;53.566;9.980;2023-03-01T16:45:00;13.65;;;6.78;;
20462;SDS011;10390;53.566;9.980;2023-03-01T16:47:26;9.70;;;6.05;;
20462;SDS011;10390;53.566;9.980;2023-03-01T16:49:52;11.50;;;6.22;;
20462;SDS011;10390;53.566;9.980;2023-03-01T16:52:19;12.05;;;5.82;;
20462;SDS011;10390;53.566;9.980;2023-03-01T16:54:45;11.68;;;6.03;;
20462;SDS011;10390;53.566;9.980;2023-03-01T16:57:10;13.48;;;6.20;;
20462;SDS011;10390;53.566;9.980;2023-03-01T16:59:36;10.57;;;6.28;;
20462;SDS011;10390;53.566;9.980;2023-03-01T17:02:02;10.82;;;5.78;;
20462;SDS011;10390;53.566;9.980;2023-03-01T17:04:35;11.20;;;5.72;;